Time;durP1;ratioP1;P1;durP2;ratioP2;P2;SDS_P1;SDS_P2;PMS_P1;PMS_P2;Temp;Humidity;BMP_temperature;BMP_pressure;BME280_temperature;BME280_humidity;BME280_pressure;Samples;Min_cycle;Max_cycle;Signal;HPM_P1;HPM_P2
2023/09/07 00:01:08;;;;;;;1.95;0.98;;;20.00;99.90;;;;;;4996394;28;20124;-71
2023/09/07 00:03:34;;;;;;;3.08;1.65;;;19.90;99.90;;;;;;5001746;28;20069;-71
2023/09/07 00:05:59;;;;;;;2.63;1.55;;;19.90;99.90;;;;;;5002296;28;20053;-71
2023/09/07 00:08:25;;;;;;;4.55;1.80;;;19.90;99.90;;;;;;5003123;28;20034;-71
2023/09/07 00:10:51;;;;;;;3.28;1.52;;;19.90;99.90;;;;;;4999638;28;20277;-71
2023/09/07 00:13:16;;;;;;;2.80;1.25;;;19.80;99.90;;;;;;4996408;28;20041;-72
2023/09/07 00:15:42;;;;;;;3.70;1.60;;;19.90;99.90;;;;;;5003922;28;20041;-73
2023/09/07 00:18:08;;;;;;;2.55;1.55;;;19.90;99.90;;;;;;4995099;28;20138;-70
2023/09/07 00:20:34;;;;;;;3.95;1.67;;;19.90;99.90;;;;;;4997629;28;20042;-71
2023/09/07 00:23:00;;;;;;;2.72;1.35;;;19.90;99.90;;;;;;4993795;28;20037;-71
2023/09/07 00:25:26;;;;;;;4.65;1.70;;;19.90;99.90;;;;;;5001385;28;20076;-72
2023/09/07 00:27:52;;;;;;;3.97;1.85;;;19.90;99.90;;;;;;5002197;28;20030;-70
2023/09/07 00:30:17;;;;;;;4.32;1.90;;;19.90;99.90;;;;;;5007701;28;20501;-71
2023/09/07 00:32:43;;;;;;;4.78;1.90;;;20.00;99.90;;;;;;4996606;28;20517;-72
2023/09/07 00:35:09;;;;;;;4.68;2.25;;;20.00;99.90;;;;;;4998889;28;20113;-70
2023/09/07 00:37:34;;;;;;;3.58;1.90;;;20.00;99.90;;;;;;5003121;28;20037;-70
2023/09/07 00:40:00;;;;;;;5.72;1.95;;;20.10;99.90;;;;;;4997907;28;20504;-72
2023/09/07 00:42:25;;;;;;;3.10;1.48;;;20.10;99.90;;;;;;5002352;28;20033;-71
2023/09/07 00:44:51;;;;;;;3.20;1.70;;;20.00;99.90;;;;;;4996938;28;20062;-71
2023/09/07 00:47:17;;;;;;;2.75;1.48;;;20.00;99.90;;;;;;5002067;28;20516;-71
2023/09/07 00:49:43;;;;;;;3.92;1.38;;;20.00;99.90;;;;;;5003333;28;20034;-71
2023/09/07 00:52:09;;;;;;;4.30;1.77;;;20.00;99.90;;;;;;5001221;28;20076;-71
2023/09/07 00:54:38;;;;;;;5.53;1.48;;;20.00;99.90;;;;;;5006035;28;20474;-71
2023/09/07 00:57:05;;;;;;;5.07;1.90;;;20.00;99.90;;;;;;5001861;28;20038;-72
2023/09/07 00:59:32;;;;;;;2.45;1.50;;;20.00;99.90;;;;;;5001481;28;20043;-70
2023/09/07 01:01:58;;;;;;;5.53;2.00;;;20.00;99.90;;;;;;5006750;28;20396;-70
2023/09/07 01:04:23;;;;;;;4.07;1.48;;;20.00;99.90;;;;;;4991446;28;20125;-70
2023/09/07 01:07:07;;;;;;;4.65;1.58;;;20.00;99.90;;;;;;4990144;28;20041;-72
2023/09/07 01:09:36;;;;;;;2.85;1.30;;;20.00;99.90;;;;;;4995048;28;20031;-71
2023/09/07 01:12:02;;;;;;;4.05;1.70;;;20.00;99.90;;;;;;4987590;28;20490;-71
2023/09/07 01:14:28;;;;;;;2.80;1.40;;;20.00;99.90;;;;;;4992643;28;20037;-71
2023/09/07 01:16:54;;;;;;;5.97;2.20;;;20.00;99.90;;;;;;4990840;28;20042;-72
2023/09/07 01:19:20;;;;;;;5.72;2.15;;;19.90;99.90;;;;;;4997465;28;20042;-71
2023/09/07 01:21:46;;;;;;;4.30;1.92;;;19.90;99.90;;;;;;4996639;28;20054;-72
2023/09/07 01:24:13;;;;;;;2.97;1.60;;;19.90;99.90;;;;;;4997630;28;20062;-72
2023/09/07 01:26:39;;;;;;;4.32;2.10;;;19.90;99.90;;;;;;4996354;28;20030;-71
2023/09/07 01:29:08;;;;;;;4.72;2.03;;;19.90;99.90;;;;;;4996841;28;20445;-71
2023/09/07 01:31:38;;;;;;;6.25;2.70;;;19.90;99.90;;;;;;4994391;28;20034;-71
2023/09/07 01:34:04;;;;;;;6.47;2.30;;;19.90;99.90;;;;;;4992670;28;20042;-71
2023/09/07 01:36:30;;;;;;;7.00;2.42;;;19.90;99.90;;;;;;4991010;28;20044;-72
2023/09/07 01:38:56;;;;;;;4.43;1.90;;;20.00;99.90;;;;;;4997680;28;20042;-72
2023/09/07 01:41:22;;;;;;;3.88;2.25;;;20.00;99.90;;;;;;4998381;28;20046;-71
2023/09/07 01:43:48;;;;;;;2.85;1.73;;;20.00;99.90;;;;;;4998626;28;20506;-72
2023/09/07 01:46:13;;;;;;;5.47;2.45;;;20.10;99.90;;;;;;4999382;28;20041;-71
2023/09/07 01:48:39;;;;;;;4.50;1.90;;;20.10;99.90;;;;;;5001768;28;20041;-71
2023/09/07 01:51:04;;;;;;;3.85;2.10;;;20.20;99.90;;;;;;5002666;28;20046;-72
2023/09/07 01:53:30;;;;;;;4.50;2.20;;;20.20;99.90;;;;;;5000062;28;20034;-71
2023/09/07 01:55:56;;;;;;;4.22;2.50;;;20.20;99.90;;;;;;4994973;28;20046;-71
2023/09/07 01:58:23;;;;;;;3.72;2.22;;;20.30;99.90;;;;;;5000831;28;20046;-71
2023/09/07 02:00:49;;;;;;;5.15;2.38;;;20.20;99.90;;;;;;4999299;28;20041;-72
2023/09/07 02:03:15;;;;;;;4.25;2.10;;;20.20;99.90;;;;;;4998534;28;20026;-70
2023/09/07 02:05:41;;;;;;;5.50;2.20;;;20.20;99.90;;;;;;5002723;28;20042;-72
2023/09/07 02:08:06;;;;;;;5.13;2.42;;;20.20;99.90;;;;;;4999475;28;20516;-71
2023/09/07 02:10:33;;;;;;;5.20;2.65;;;20.20;99.90;;;;;;5003164;28;20038;-71
2023/09/07 02:12:59;;;;;;;4.43;2.30;;;20.20;99.90;;;;;;4994225;28;20113;-71
2023/09/07 02:15:24;;;;;;;5.25;2.40;;;20.20;99.90;;;;;;4997878;28;20450;-71
2023/09/07 02:17:50;;;;;;;8.20;3.15;;;20.20;99.90;;;;;;4999177;28;20042;-72
2023/09/07 02:20:16;;;;;;;8.75;2.45;;;20.20;99.90;;;;;;4993328;28;20029;-71
2023/09/07 02:22:42;;;;;;;4.43;2.45;;;20.20;99.90;;;;;;5001823;28;20121;-71
2023/09/07 02:25:08;;;;;;;7.18;2.10;;;20.20;99.90;;;;;;4995473;28;20118;-71
2023/09/07 02:27:34;;;;;;;5.43;2.20;;;20.20;99.90;;;;;;5003381;28;20033;-70
2023/09/07 02:29:59;;;;;;;4.90;2.55;;;20.10;99.90;;;;;;5000295;28;20033;-71
2023/09/07 02:32:25;;;;;;;6.50;2.05;;;20.10;99.90;;;;;;5003815;28;20026;-72
2023/09/07 02:34:50;;;;;;;5.90;2.22;;;20.10;99.90;;;;;;5003523;28;20053;-72
2023/09/07 02:37:16;;;;;;;5.82;2.50;;;20.00;99.90;;;;;;4997621;28;20049;-70
2023/09/07 02:39:42;;;;;;;4.45;2.60;;;19.90;99.90;;;;;;5003705;28;20482;-72
2023/09/07 02:42:08;;;;;;;4.35;2.00;;;19.80;99.90;;;;;;4999863;28;20490;-70
2023/09/07 02:44:33;;;;;;;8.00;2.88;;;19.80;99.90;;;;;;5004094;28;20045;-71
2023/09/07 02:46:59;;;;;;;9.55;2.38;;;19.70;99.90;;;;;;4998771;28;20026;-72
2023/09/07 02:49:25;;;;;;;4.97;2.38;;;19.70;99.90;;;;;;5005962;28;20033;-71
2023/09/07 02:51:50;;;;;;;5.03;2.22;;;19.60;99.90;;;;;;5002889;28;20374;-71
2023/09/07 02:54:16;;;;;;;6.68;2.75;;;19.50;99.90;;;;;;5000465;28;20125;-73
2023/09/07 02:56:41;;;;;;;4.75;2.53;;;19.40;99.90;;;;;;4997950;28;20063;-70
2023/09/07 03:02:29;;;;;;;4.47;2.03;;;19.30;99.90;;;;;;4996079;28;20043;-71
2023/09/07 03:04:58;;;;;;;4.68;2.42;;;19.20;99.90;;;;;;4999139;28;20038;-70
2023/09/07 03:07:24;;;;;;;5.07;2.73;;;19.20;99.90;;;;;;5001918;28;20041;-72
2023/09/07 03:09:52;;;;;;;3.95;2.30;;;19.20;99.90;;;;;;5006156;28;20065;-74
2023/09/07 03:12:17;;;;;;;3.88;2.47;;;19.10;99.90;;;;;;5004025;28;20529;-71
2023/09/07 03:14:44;;;;;;;5.88;2.22;;;19.10;99.90;;;;;;5006178;28;20034;-71
2023/09/07 03:17:09;;;;;;;4.90;1.98;;;19.10;99.90;;;;;;4993484;28;20528;-70
2023/09/07 03:19:37;;;;;;;6.90;2.90;;;19.10;99.90;;;;;;4993536;28;20034;-72
2023/09/07 03:22:03;;;;;;;6.80;2.60;;;19.10;99.90;;;;;;5001731;28;20042;-71
2023/09/07 03:24:29;;;;;;;5.85;2.50;;;19.10;99.90;;;;;;5009131;28;20080;-70
2023/09/07 03:26:54;;;;;;;4.65;2.60;;;19.20;99.90;;;;;;4997435;28;20033;-72
2023/09/07 03:29:20;;;;;;;3.47;2.15;;;19.30;99.90;;;;;;4996534;28;20450;-71
2023/09/07 03:31:45;;;;;;;8.18;2.25;;;19.30;99.90;;;;;;5002302;28;20053;-72
2023/09/07 03:34:11;;;;;;;4.65;2.10;;;19.30;99.90;;;;;;4997431;28;20053;-70
2023/09/07 03:36:36;;;;;;;6.10;2.50;;;19.20;99.90;;;;;;4998094;28;20066;-70
2023/09/07 03:39:02;;;;;;;5.63;2.63;;;19.30;99.90;;;;;;4999272;28;20031;-72
2023/09/07 03:41:30;;;;;;;4.75;2.47;;;19.20;99.90;;;;;;5000450;28;20565;-70
2023/09/07 03:43:56;;;;;;;8.07;2.40;;;19.20;99.90;;;;;;5002282;28;20096;-72
2023/09/07 03:46:22;;;;;;;5.32;2.20;;;19.10;99.90;;;;;;4997871;28;20421;-71
2023/09/07 03:48:47;;;;;;;4.07;2.25;;;19.10;99.90;;;;;;5003026;28;20039;-72
2023/09/07 03:51:13;;;;;;;3.78;2.20;;;19.00;99.90;;;;;;4998227;28;20044;-70
2023/09/07 03:53:39;;;;;;;5.70;2.17;;;19.00;99.90;;;;;;5002437;28;20035;-71
2023/09/07 03:56:04;;;;;;;4.63;2.53;;;19.10;99.90;;;;;;4996957;28;20042;-71
2023/09/07 03:58:30;;;;;;;5.10;2.30;;;19.10;99.90;;;;;;5000778;28;20050;-72
2023/09/07 04:00:59;;;;;;;8.52;2.53;;;19.10;99.90;;;;;;4999599;28;20042;-73
2023/09/07 04:03:25;;;;;;;4.68;2.42;;;19.10;99.90;;;;;;4994137;28;20046;-72
2023/09/07 04:05:51;;;;;;;7.38;2.25;;;19.20;99.90;;;;;;5002032;28;20050;-70
2023/09/07 04:08:16;;;;;;;7.65;2.40;;;19.20;99.90;;;;;;4998859;28;20046;-71
2023/09/07 04:10:42;;;;;;;4.90;2.10;;;19.20;99.90;;;;;;5002034;28;20054;-71
2023/09/07 04:13:08;;;;;;;5.13;2.22;;;19.20;99.90;;;;;;4998652;28;20050;-71
2023/09/07 04:15:34;;;;;;;5.47;2.42;;;19.10;99.90;;;;;;4993713;28;20517;-72
2023/09/07 04:17:59;;;;;;;4.60;2.67;;;19.00;99.90;;;;;;4995907;28;20139;-72
2023/09/07 04:20:26;;;;;;;6.13;2.80;;;19.00;99.90;;;;;;4995897;28;20034;-72
2023/09/07 04:22:51;;;;;;;4.78;2.10;;;19.00;99.90;;;;;;5001443;28;20449;-73
2023/09/07 04:25:17;;;;;;;6.30;2.13;;;19.00;99.90;;;;;;4999372;28;20033;-72
2023/09/07 04:27:42;;;;;;;6.22;2.65;;;19.00;99.90;;;;;;4997974;28;20038;-71
2023/09/07 04:30:08;;;;;;;4.85;2.95;;;19.00;99.90;;;;;;4995103;28;20042;-71
2023/09/07 04:32:34;;;;;;;6.75;2.42;;;19.10;99.90;;;;;;4994412;28;20043;-71
2023/09/07 04:35:01;;;;;;;6.50;2.58;;;19.10;99.90;;;;;;4999553;28;20413;-72
2023/09/07 04:37:27;;;;;;;4.50;2.30;;;19.00;99.90;;;;;;5001940;28;20121;-71
2023/09/07 04:39:53;;;;;;;8.05;2.60;;;19.00;99.90;;;;;;4998929;28;20558;-73
2023/09/07 04:42:19;;;;;;;4.57;2.30;;;18.90;99.90;;;;;;4994064;28;20153;-72
2023/09/07 04:44:46;;;;;;;4.68;2.10;;;18.90;99.90;;;;;;5003214;28;20026;-71
2023/09/07 04:47:11;;;;;;;5.43;2.67;;;18.80;99.90;;;;;;5001998;28;20037;-71
2023/09/07 04:49:37;;;;;;;4.90;2.00;;;18.80;99.90;;;;;;4996454;28;20119;-70
2023/09/07 04:52:03;;;;;;;7.15;2.53;;;18.70;99.90;;;;;;4997779;28;20409;-71
2023/09/07 04:54:28;;;;;;;5.47;2.45;;;18.70;99.90;;;;;;4998707;28;20406;-71
2023/09/07 04:56:54;;;;;;;6.30;2.30;;;18.60;99.90;;;;;;4992938;28;20046;-71
2023/09/07 04:59:19;;;;;;;8.95;2.47;;;18.60;99.90;;;;;;5003062;28;20045;-71
2023/09/07 05:01:45;;;;;;;5.63;2.35;;;18.60;99.90;;;;;;4996454;28;20123;-71
2023/09/07 05:04:11;;;;;;;5.22;2.42;;;18.50;99.90;;;;;;4989576;28;20027;-70
2023/09/07 05:06:38;;;;;;;6.22;2.65;;;18.50;99.90;;;;;;4998432;28;20034;-70
2023/09/07 05:09:04;;;;;;;3.60;2.15;;;18.50;99.90;;;;;;5006549;28;20057;-72
2023/09/07 05:11:29;;;;;;;5.75;2.40;;;18.40;99.90;;;;;;5010260;28;20067;-70
2023/09/07 05:13:55;;;;;;;7.30;2.88;;;18.40;99.90;;;;;;5013200;28;20029;-72
2023/09/07 05:16:20;;;;;;;7.65;3.08;;;18.50;99.90;;;;;;5011067;28;20053;-71
2023/09/07 05:18:46;;;;;;;5.18;2.22;;;18.50;99.90;;;;;;5013098;28;20592;-71
2023/09/07 05:21:15;;;;;;;8.55;2.40;;;18.50;99.90;;;;;;5007817;28;20037;-71
2023/09/07 05:23:41;;;;;;;4.38;2.30;;;18.50;99.90;;;;;;5013699;28;20089;-72
2023/09/07 05:26:07;;;;;;;6.03;2.33;;;18.60;99.90;;;;;;5009891;28;20805;-71
2023/09/07 05:28:32;;;;;;;5.65;3.00;;;18.60;99.90;;;;;;5012095;28;20509;-70
2023/09/07 05:30:58;;;;;;;15.30;3.13;;;18.60;99.90;;;;;;5015354;28;20041;-72
2023/09/07 05:33:24;;;;;;;9.07;2.85;;;18.70;99.90;;;;;;5007771;28;20087;-71
2023/09/07 05:35:49;;;;;;;15.77;2.58;;;18.80;99.90;;;;;;5011448;28;20046;-71
2023/09/07 05:38:15;;;;;;;8.68;3.33;;;18.90;99.90;;;;;;5008024;28;20041;-71
2023/09/07 05:40:42;;;;;;;17.08;3.47;;;18.90;99.90;;;;;;5016386;28;20029;-70
2023/09/07 05:43:08;;;;;;;6.88;2.85;;;19.00;99.90;;;;;;5005296;28;20094;-72
2023/09/07 05:45:36;;;;;;;5.93;2.50;;;19.00;99.90;;;;;;5008605;28;20038;-71
2023/09/07 05:48:03;;;;;;;4.80;2.70;;;19.10;99.90;;;;;;5011797;28;20056;-70
2023/09/07 05:50:28;;;;;;;8.75;3.05;;;19.20;99.90;;;;;;5012127;28;20144;-71
2023/09/07 05:52:54;;;;;;;9.68;3.15;;;19.20;99.90;;;;;;5010954;28;20037;-71
2023/09/07 05:55:20;;;;;;;5.80;2.15;;;19.30;99.90;;;;;;5011937;28;20038;-70
2023/09/07 05:57:46;;;;;;;8.80;2.92;;;19.40;99.90;;;;;;5015725;28;20029;-71
2023/09/07 06:00:12;;;;;;;6.25;2.70;;;19.40;99.90;;;;;;5010767;28;20140;-71
2023/09/07 06:02:38;;;;;;;7.00;2.65;;;19.40;99.90;;;;;;5016028;28;20217;-71
2023/09/07 06:05:04;;;;;;;8.85;2.35;;;19.50;99.90;;;;;;5009444;28;21104;-70
2023/09/07 06:07:29;;;;;;;6.65;2.85;;;19.60;99.90;;;;;;5012986;28;20064;-71
2023/09/07 06:09:55;;;;;;;8.77;2.92;;;19.80;99.90;;;;;;5016046;28;20703;-71
2023/09/07 06:12:21;;;;;;;6.80;2.55;;;20.00;99.90;;;;;;5013530;28;20374;-70
2023/09/07 06:14:46;;;;;;;6.00;2.47;;;20.10;99.90;;;;;;5013799;28;20091;-70
2023/09/07 06:17:12;;;;;;;11.63;2.70;;;20.10;99.90;;;;;;5009369;28;20042;-70
2023/09/07 06:19:38;;;;;;;4.28;1.90;;;20.10;99.90;;;;;;5014063;28;20041;-70
2023/09/07 06:22:04;;;;;;;5.82;2.00;;;20.20;99.90;;;;;;5013799;28;20026;-69
2023/09/07 06:24:29;;;;;;;5.93;2.50;;;20.30;99.90;;;;;;5011459;28;20045;-70
2023/09/07 06:26:55;;;;;;;7.28;2.63;;;20.50;99.90;;;;;;5013228;28;20046;-71
2023/09/07 06:29:20;;;;;;;6.25;2.65;;;20.60;99.90;;;;;;5016882;28;20049;-70
2023/09/07 06:31:46;;;;;;;6.47;2.08;;;20.80;99.90;;;;;;5010549;28;20041;-69
2023/09/07 06:34:11;;;;;;;13.35;2.45;;;20.90;99.90;;;;;;5008982;28;20041;-70
2023/09/07 06:36:37;;;;;;;9.52;3.03;;;21.20;99.90;;;;;;5017831;28;20406;-70
2023/09/07 06:39:04;;;;;;;8.50;2.58;;;21.20;99.90;;;;;;5014918;28;20371;-70
2023/09/07 06:41:30;;;;;;;4.80;1.83;;;21.30;99.90;;;;;;5013625;28;20042;-71
2023/09/07 06:43:56;;;;;;;5.93;2.20;;;21.30;99.90;;;;;;5019178;28;20056;-69
2023/09/07 06:46:21;;;;;;;4.32;2.30;;;21.30;99.90;;;;;;5013732;28;20033;-70
2023/09/07 06:48:47;;;;;;;4.28;2.50;;;21.40;99.90;;;;;;5018024;28;20134;-70
2023/09/07 06:51:12;;;;;;;7.10;2.63;;;21.50;99.90;;;;;;5017166;28;20038;-70
2023/09/07 06:53:38;;;;;;;4.32;2.08;;;21.60;99.90;;;;;;5016451;28;20064;-70
2023/09/07 06:56:04;;;;;;;9.38;2.30;;;21.60;99.90;;;;;;5015129;28;20040;-71
2023/09/07 06:58:32;;;;;;;7.93;2.17;;;21.60;99.90;;;;;;5015622;28;20038;-71
2023/09/07 07:01:01;;;;;;;5.93;1.85;;;21.80;99.90;;;;;;5019268;28;20030;-70
2023/09/07 07:03:28;;;;;;;5.82;1.95;;;21.70;99.90;;;;;;5013580;28;20141;-70
2023/09/07 07:05:54;;;;;;;6.28;2.58;;;21.90;99.90;;;;;;5014010;28;20037;-73
2023/09/07 07:08:20;;;;;;;6.38;1.85;;;21.90;99.90;;;;;;5020713;28;20152;-70
2023/09/07 07:10:45;;;;;;;6.28;1.73;;;21.90;99.90;;;;;;5015249;28;20188;-70
2023/09/07 07:13:11;;;;;;;22.17;2.22;;;22.00;99.90;;;;;;5014644;28;20041;-70
2023/09/07 07:15:37;;;;;;;6.78;1.70;;;22.00;99.90;;;;;;5020924;28;20114;-70
2023/09/07 07:18:08;;;;;;;6.88;2.67;;;22.00;99.90;;;;;;5017650;28;20048;-70
2023/09/07 07:20:34;;;;;;;3.05;1.45;;;22.00;99.90;;;;;;5009419;28;20088;-70
2023/09/07 07:23:00;;;;;;;6.10;2.15;;;22.10;99.90;;;;;;5016696;28;20050;-71
2023/09/07 07:25:25;;;;;;;4.97;2.20;;;22.10;99.90;;;;;;5019642;28;20054;-71
2023/09/07 07:27:51;;;;;;;6.38;2.15;;;22.30;99.90;;;;;;5012542;28;20033;-74
2023/09/07 07:30:16;;;;;;;3.40;1.77;;;22.30;99.90;;;;;;5018732;28;20044;-70
2023/09/07 07:32:42;;;;;;;3.63;1.80;;;22.40;99.90;;;;;;5020612;28;20030;-70
2023/09/07 07:35:08;;;;;;;6.00;1.80;;;22.50;99.90;;;;;;5013644;28;20040;-69
2023/09/07 07:37:33;;;;;;;6.95;2.72;;;22.60;99.90;;;;;;5017232;28;20040;-70
2023/09/07 07:39:59;;;;;;;3.00;1.85;;;22.70;99.90;;;;;;5016555;28;20870;-71
2023/09/07 07:42:24;;;;;;;4.20;1.73;;;22.70;99.90;;;;;;5001499;28;20503;-70
2023/09/07 07:44:50;;;;;;;9.02;2.13;;;22.80;99.90;;;;;;5007885;28;20065;-70
2023/09/07 07:47:16;;;;;;;4.82;2.00;;;22.90;99.90;;;;;;5006782;28;20042;-70
2023/09/07 07:49:42;;;;;;;3.60;1.42;;;23.00;99.90;;;;;;5006042;28;20096;-70
2023/09/07 07:52:07;;;;;;;3.53;1.60;;;23.00;99.90;;;;;;5008054;28;20494;-71
2023/09/07 07:54:34;;;;;;;3.92;1.88;;;23.00;99.90;;;;;;5000971;28;20375;-69
2023/09/07 07:56:59;;;;;;;3.60;1.70;;;23.10;99.90;;;;;;5003630;28;20096;-72
2023/09/07 07:59:25;;;;;;;8.05;1.98;;;23.20;99.90;;;;;;5019060;28;20050;-71
2023/09/07 08:01:50;;;;;;;3.80;1.30;;;23.20;99.90;;;;;;5013474;28;20046;-71
2023/09/07 08:04:16;;;;;;;6.60;1.70;;;23.20;99.90;;;;;;5013914;28;20163;-71
2023/09/07 08:06:41;;;;;;;7.00;2.10;;;23.30;99.90;;;;;;5017311;28;20042;-71
2023/09/07 08:09:08;;;;;;;6.18;1.85;;;23.40;99.90;;;;;;5013740;28;20057;-71
2023/09/07 08:11:33;;;;;;;3.72;1.38;;;23.50;99.90;;;;;;5012610;28;20029;-71
2023/09/07 08:13:59;;;;;;;3.38;1.63;;;23.50;99.90;;;;;;5009755;28;20092;-70
2023/09/07 08:16:24;;;;;;;4.57;1.92;;;23.60;99.90;;;;;;5014278;28;20026;-72
2023/09/07 08:18:50;;;;;;;5.07;2.40;;;23.80;99.90;;;;;;5011276;28;20401;-70
2023/09/07 08:21:16;;;;;;;2.67;1.30;;;23.80;99.90;;;;;;5011873;28;20037;-69
2023/09/07 08:23:41;;;;;;;3.47;1.60;;;23.90;99.90;;;;;;5017649;28;20030;-70
2023/09/07 08:26:09;;;;;;;6.80;1.65;;;23.90;99.90;;;;;;5010355;28;20370;-72
2023/09/07 08:28:34;;;;;;;4.47;1.80;;;24.00;99.90;;;;;;5011042;28;20099;-71
2023/09/07 08:31:00;;;;;;;4.43;1.55;;;24.00;99.90;;;;;;5018948;28;20041;-71
2023/09/07 08:33:30;;;;;;;4.10;1.85;;;24.20;99.90;;;;;;5011360;28;20033;-71
2023/09/07 08:35:56;;;;;;;4.88;1.52;;;24.40;99.90;;;;;;5013068;28;20046;-71
2023/09/07 08:38:25;;;;;;;3.75;1.50;;;24.50;99.90;;;;;;5019057;28;20588;-70
2023/09/07 08:40:53;;;;;;;17.02;2.53;;;24.50;99.90;;;;;;5018355;28;20121;-71
2023/09/07 08:43:20;;;;;;;7.90;1.90;;;24.60;99.90;;;;;;5007267;28;20116;-71
2023/09/07 08:46:03;;;;;;;3.80;1.52;;;24.70;99.90;;;;;;5011545;28;20030;-72
2023/09/07 08:48:30;;;;;;;4.63;1.40;;;24.70;99.90;;;;;;5013407;28;20043;-70
2023/09/07 08:50:56;;;;;;;3.42;1.13;;;24.90;99.90;;;;;;5011851;28;20049;-71
2023/09/07 08:53:23;;;;;;;3.08;1.35;;;24.90;99.90;;;;;;5007179;28;20038;-71
2023/09/07 08:55:49;;;;;;;2.38;1.20;;;25.00;99.90;;;;;;5015692;28;20521;-71
2023/09/07 08:58:14;;;;;;;6.93;1.20;;;25.00;99.90;;;;;;5012536;28;20049;-72
2023/09/07 09:00:43;;;;;;;5.03;1.10;;;24.90;99.90;;;;;;5010895;28;20037;-71
2023/09/07 09:03:09;;;;;;;2.22;1.13;;;25.00;99.90;;;;;;5013962;28;20480;-69
2023/09/07 09:05:38;;;;;;;7.28;1.50;;;25.00;99.90;;;;;;5011773;28;20053;-71
2023/09/07 09:08:04;;;;;;;4.22;1.38;;;25.10;99.90;;;;;;5012694;28;20051;-71
2023/09/07 09:10:30;;;;;;;1.83;1.13;;;25.10;99.90;;;;;;5011206;28;20553;-72
2023/09/07 09:12:56;;;;;;;3.13;1.45;;;25.20;99.90;;;;;;5009244;28;20037;-71
2023/09/07 09:15:22;;;;;;;10.30;1.80;;;25.30;99.90;;;;;;5009493;28;20406;-71
2023/09/07 09:17:48;;;;;;;6.50;1.40;;;25.30;99.90;;;;;;5005673;28;20480;-71
2023/09/07 09:20:24;;;;;;;4.15;1.30;;;25.40;99.90;;;;;;5010209;28;20038;-71
2023/09/07 09:22:54;;;;;;;1.85;1.10;;;25.50;99.90;;;;;;5010275;28;20533;-71
2023/09/07 09:25:21;;;;;;;2.40;1.27;;;25.70;99.90;;;;;;5007927;28;20092;-71
2023/09/07 09:27:47;;;;;;;2.55;1.33;;;25.70;99.90;;;;;;5005424;28;20037;-70
2023/09/07 09:30:15;;;;;;;1.83;1.17;;;25.70;99.90;;;;;;5007886;28;20485;-71
2023/09/07 09:32:42;;;;;;;2.50;1.10;;;25.80;99.90;;;;;;5011437;28;20040;-70
2023/09/07 09:35:09;;;;;;;7.53;1.58;;;25.80;99.90;;;;;;4994892;28;20042;-70
2023/09/07 09:37:44;;;;;;;3.92;1.20;;;26.00;99.90;;;;;;4995670;28;20045;-71
2023/09/07 09:40:12;;;;;;;3.80;1.67;;;26.00;99.90;;;;;;4994870;28;20546;-70
2023/09/07 09:42:38;;;;;;;7.28;1.70;;;26.10;99.90;;;;;;4996160;28;20399;-71
2023/09/07 09:45:06;;;;;;;5.38;1.63;;;26.20;99.90;;;;;;4994673;28;20034;-71
2023/09/07 09:47:33;;;;;;;4.28;0.98;;;26.20;99.90;;;;;;4998105;28;20038;-69
2023/09/07 09:50:01;;;;;;;2.35;1.40;;;26.20;99.90;;;;;;4999647;28;20041;-70
2023/09/07 09:52:28;;;;;;;2.90;1.35;;;26.30;99.90;;;;;;4997258;28;20042;-70
2023/09/07 09:54:54;;;;;;;3.13;0.98;;;26.40;99.90;;;;;;4993632;28;20041;-71
2023/09/07 09:57:21;;;;;;;3.08;1.30;;;26.40;99.90;;;;;;4999223;28;20037;-71
2023/09/07 09:59:46;;;;;;;2.90;1.35;;;26.50;99.90;;;;;;5004508;28;20097;-71
2023/09/07 10:02:12;;;;;;;5.05;1.45;;;26.60;99.80;;;;;;5004131;28;20046;-71
2023/09/07 10:04:38;;;;;;;5.10;1.33;;;26.60;99.40;;;;;;5004700;28;20034;-71
2023/09/07 10:07:05;;;;;;;7.32;1.55;;;26.70;99.90;;;;;;5000477;28;20053;-69
2023/09/07 10:09:34;;;;;;;6.00;1.40;;;26.70;99.90;;;;;;4999901;28;20125;-70
2023/09/07 10:12:04;;;;;;;3.97;1.95;;;26.70;99.90;;;;;;5006859;28;20042;-71
2023/09/07 10:14:42;;;;;;;2.85;1.20;;;26.80;99.50;;;;;;5005670;28;20124;-70
2023/09/07 10:17:09;;;;;;;3.60;1.40;;;27.00;99.80;;;;;;4998912;28;20125;-70
2023/09/07 10:19:37;;;;;;;2.15;1.10;;;27.00;98.60;;;;;;5000034;28;20038;-70
2023/09/07 10:22:03;;;;;;;3.70;1.33;;;27.00;98.50;;;;;;5005893;28;20038;-69
2023/09/07 10:24:39;;;;;;;2.15;1.00;;;27.10;98.20;;;;;;4999982;28;20044;-71
2023/09/07 10:27:07;;;;;;;2.63;1.35;;;27.10;98.60;;;;;;5003106;28;20045;-71
2023/09/07 10:29:54;;;;;;;3.15;1.70;;;27.20;98.30;;;;;;4999193;28;20065;-71
2023/09/07 10:32:20;;;;;;;3.88;1.30;;;27.30;98.20;;;;;;4997993;28;20438;-72
2023/09/07 10:34:46;;;;;;;4.20;1.17;;;27.20;98.80;;;;;;5001840;28;20037;-69
2023/09/07 10:37:13;;;;;;;6.03;1.13;;;27.20;98.50;;;;;;5003805;28;20124;-71
2023/09/07 10:39:43;;;;;;;4.22;1.05;;;27.30;98.60;;;;;;5003284;28;20098;-70
2023/09/07 10:42:30;;;;;;;1.92;0.90;;;27.40;98.60;;;;;;5005493;28;20088;-70
2023/09/07 10:44:55;;;;;;;2.20;1.15;;;27.50;97.60;;;;;;5001905;28;20042;-74
2023/09/07 10:47:21;;;;;;;6.97;1.20;;;27.50;97.50;;;;;;5002398;28;20079;-71
2023/09/07 10:49:47;;;;;;;4.78;1.27;;;27.40;97.70;;;;;;4996847;28;20176;-70
2023/09/07 10:52:13;;;;;;;3.42;1.05;;;27.40;97.80;;;;;;5001559;28;20121;-72
2023/09/07 10:54:38;;;;;;;6.32;1.65;;;27.40;98.10;;;;;;4996869;28;20034;-70
2023/09/07 10:57:13;;;;;;;4.70;1.13;;;27.50;97.80;;;;;;4992959;28;20198;-71
2023/09/07 10:59:43;;;;;;;2.20;1.00;;;27.50;97.90;;;;;;5002216;28;20046;-69
2023/09/07 11:02:09;;;;;;;3.65;1.02;;;27.50;97.50;;;;;;4999691;28;20041;-70
2023/09/07 11:04:34;;;;;;;3.50;1.48;;;27.50;98.30;;;;;;4999144;28;20076;-71
2023/09/07 11:07:02;;;;;;;4.85;1.05;;;27.50;97.40;;;;;;5001603;28;20045;-71
2023/09/07 11:09:30;;;;;;;1.38;0.90;;;27.60;98.20;;;;;;4997608;28;20084;-71
2023/09/07 11:11:55;;;;;;;1.92;1.20;;;27.50;98.70;;;;;;4997891;28;20048;-74
2023/09/07 11:14:22;;;;;;;2.20;1.10;;;27.50;98.00;;;;;;5002199;28;20037;-72
2023/09/07 11:16:48;;;;;;;2.95;1.70;;;27.50;99.10;;;;;;4999012;28;20466;-72
2023/09/07 11:19:15;;;;;;;2.92;1.40;;;27.50;99.70;;;;;;5005090;28;20045;-72
2023/09/07 11:21:40;;;;;;;5.55;1.00;;;27.50;97.90;;;;;;4999525;28;20565;-70
2023/09/07 11:24:08;;;;;;;5.25;1.20;;;27.60;97.30;;;;;;4995554;28;20116;-70
2023/09/07 11:26:43;;;;;;;4.07;1.40;;;27.70;96.50;;;;;;5001776;28;20494;-72
2023/09/07 11:29:09;;;;;;;3.53;1.30;;;27.70;96.90;;;;;;5004364;28;20030;-71
2023/09/07 11:31:34;;;;;;;1.85;1.00;;;27.70;97.00;;;;;;5003120;28;20501;-70
2023/09/07 11:34:00;;;;;;;2.08;1.10;;;27.70;96.20;;;;;;4997599;28;20121;-71
2023/09/07 11:36:25;;;;;;;2.67;1.02;;;27.80;96.50;;;;;;5001720;28;20054;-70
2023/09/07 11:38:51;;;;;;;4.80;1.48;;;27.80;96.50;;;;;;4999902;28;20036;-70
2023/09/07 11:41:17;;;;;;;7.22;1.35;;;27.80;96.10;;;;;;5005846;28;20111;-71
2023/09/07 11:43:42;;;;;;;3.47;1.15;;;27.80;96.10;;;;;;5006074;28;20037;-71
2023/09/07 11:46:08;;;;;;;4.88;1.05;;;27.80;96.20;;;;;;5006173;28;20034;-70
2023/09/07 11:48:34;;;;;;;2.42;1.25;;;27.90;96.10;;;;;;5000638;28;20038;-70
2023/09/07 11:51:00;;;;;;;4.35;1.20;;;27.90;95.60;;;;;;5001481;28;20041;-70
2023/09/07 11:53:25;;;;;;;3.33;1.50;;;27.80;95.80;;;;;;5000906;28;20121;-70
2023/09/07 11:55:51;;;;;;;1.80;1.00;;;27.80;96.50;;;;;;5004188;28;20457;-70
2023/09/07 11:58:17;;;;;;;2.95;1.55;;;27.70;96.90;;;;;;5006466;28;20103;-72
2023/09/07 12:00:43;;;;;;;2.00;1.30;;;27.70;96.20;;;;;;5003947;28;20038;-71
2023/09/07 12:03:08;;;;;;;3.05;1.35;;;27.80;96.70;;;;;;5004858;28;20053;-71
2023/09/07 12:05:35;;;;;;;2.85;1.52;;;27.70;96.60;;;;;;5005564;28;20077;-70
2023/09/07 12:08:01;;;;;;;3.03;1.67;;;27.70;96.90;;;;;;5002299;28;20048;-72
2023/09/07 12:10:27;;;;;;;2.85;1.30;;;27.70;97.20;;;;;;5005828;28;20077;-69
2023/09/07 12:12:52;;;;;;;3.17;1.13;;;27.70;96.40;;;;;;5003493;28;20481;-70
2023/09/07 12:15:18;;;;;;;4.35;1.60;;;27.80;96.70;;;;;;5005175;28;20045;-71
2023/09/07 12:17:43;;;;;;;2.95;1.35;;;27.80;96.60;;;;;;5003945;28;20035;-70
2023/09/07 12:20:10;;;;;;;3.45;1.63;;;27.90;95.80;;;;;;5001878;28;20077;-69
2023/09/07 12:22:39;;;;;;;2.22;1.08;;;27.90;95.90;;;;;;5001636;28;20465;-71
2023/09/07 12:25:06;;;;;;;1.80;1.15;;;27.90;96.10;;;;;;5005398;28;20054;-70
2023/09/07 12:27:34;;;;;;;3.63;1.58;;;27.90;96.40;;;;;;4998364;28;20045;-70
2023/09/07 12:30:00;;;;;;;2.35;1.52;;;27.90;96.50;;;;;;5004504;28;20088;-71
2023/09/07 12:32:25;;;;;;;1.98;1.27;;;27.90;96.30;;;;;;5001944;28;20041;-71
2023/09/07 12:34:53;;;;;;;5.25;1.75;;;27.80;96.40;;;;;;5002308;28;20065;-71
2023/09/07 12:37:19;;;;;;;3.75;1.40;;;27.70;96.40;;;;;;5002888;28;20034;-71
2023/09/07 12:39:45;;;;;;;8.68;1.95;;;27.70;96.70;;;;;;4990826;28;20050;-72
2023/09/07 12:42:10;;;;;;;2.83;1.42;;;27.70;96.90;;;;;;5001849;28;20037;-70
2023/09/07 12:44:36;;;;;;;5.05;1.90;;;27.60;97.30;;;;;;5007267;28;20048;-69